Time;durP1;ratioP1;P1;durP2;ratioP2;P2;SDS_P1;SDS_P2;PMS_P1;PMS_P2;Temp;Humidity;BMP_temperature;BMP_pressure;BME280_temperature;BME280_humidity;BME280_pressure;Samples;Min_cycle;Max_cycle;Signal;HPM_P1;HPM_P2
2023/06/09 00:01:35;;;;;;;0.05;0.05;;;14.50;99.90;;;;;;5027112;28;20111;-76
2023/06/09 00:04:06;;;;;;;;;;;14.50;99.90;;;;;;5028581;28;20017;-77
2023/06/09 00:06:33;;;;;;;0.00;0.00;;;14.60;99.90;;;;;;5021504;28;19905;-76
2023/06/09 00:08:58;;;;;;;0.00;0.00;;;14.60;99.90;;;;;;5034553;28;20139;-77
2023/06/09 00:11:25;;;;;;;0.00;0.00;;;14.60;99.90;;;;;;5037303;28;20108;-76
2023/06/09 00:13:51;;;;;;;0.00;0.00;;;14.50;99.90;;;;;;5036234;28;20102;-76
2023/06/09 00:16:17;;;;;;;0.00;0.00;;;14.50;99.90;;;;;;5014937;28;20368;-78
2023/06/09 00:18:45;;;;;;;0.00;0.00;;;14.40;99.90;;;;;;5033412;28;20048;-77
2023/06/09 00:21:17;;;;;;;0.05;0.05;;;14.40;99.90;;;;;;5034447;28;20079;-77
2023/06/09 00:23:46;;;;;;;0.05;0.05;;;14.40;99.90;;;;;;5045153;28;20029;-77
2023/06/09 00:26:13;;;;;;;0.00;0.00;;;14.40;99.90;;;;;;5053923;28;20096;-77
2023/06/09 00:28:39;;;;;;;0.00;0.00;;;14.30;99.90;;;;;;5035632;28;20397;-77
2023/06/09 00:31:05;;;;;;;0.00;0.00;;;14.30;99.90;;;;;;5054314;28;20104;-77
2023/06/09 00:33:31;;;;;;;0.00;0.00;;;14.30;99.90;;;;;;5039838;28;20061;-77
2023/06/09 00:35:56;;;;;;;0.00;0.00;;;14.20;99.90;;;;;;5033603;28;20079;-76
2023/06/09 00:38:22;;;;;;;0.00;0.00;;;14.20;99.90;;;;;;5034911;28;20450;-77
2023/06/09 00:40:50;;;;;;;0.00;0.00;;;14.20;99.90;;;;;;5015862;28;20040;-77
2023/06/09 00:43:16;;;;;;;0.00;0.00;;;14.20;99.90;;;;;;5033979;28;20167;-78
2023/06/09 00:45:41;;;;;;;0.10;0.10;;;14.10;99.90;;;;;;5015298;28;20060;-78
2023/06/09 00:48:08;;;;;;;0.10;0.10;;;14.10;99.90;;;;;;5033740;28;20081;-78
2023/06/09 00:50:34;;;;;;;0.20;0.20;;;14.10;99.90;;;;;;5016472;28;20041;-78
2023/06/09 00:53:00;;;;;;;0.10;0.10;;;14.10;99.90;;;;;;5019882;28;20487;-77
2023/06/09 00:55:27;;;;;;;0.00;0.00;;;14.10;99.90;;;;;;5038621;28;20065;-77
2023/06/09 00:57:55;;;;;;;0.00;0.00;;;14.20;99.90;;;;;;5035024;28;20186;-76
2023/06/09 01:00:28;;;;;;;0.10;0.10;;;14.10;99.90;;;;;;5035487;28;20093;-77
2023/06/09 01:03:00;;;;;;;0.10;0.10;;;14.10;99.90;;;;;;5037140;28;20037;-77
2023/06/09 01:05:37;;;;;;;0.10;0.10;;;14.10;99.90;;;;;;5037923;28;20025;-77
2023/06/09 01:08:24;;;;;;;0.10;0.10;;;14.10;99.90;;;;;;5021229;28;20021;-77
2023/06/09 01:11:22;;;;;;;0.17;0.17;;;14.00;99.90;;;;;;5035732;28;20104;-76
2023/06/09 01:14:08;;;;;;;0.08;0.08;;;14.00;99.90;;;;;;5033717;28;20041;-78
2023/06/09 01:16:47;;;;;;;0.20;0.20;;;14.00;99.90;;;;;;5036362;28;20442;-76
2023/06/09 01:19:45;;;;;;;0.22;0.22;;;14.00;99.90;;;;;;5035730;28;20029;-77
2023/06/09 01:22:35;;;;;;;0.28;0.28;;;14.00;99.90;;;;;;5030785;28;20048;-79
2023/06/09 01:25:34;;;;;;;0.30;0.30;;;14.00;99.90;;;;;;5046504;28;20116;-77
2023/06/09 01:28:12;;;;;;;0.30;0.30;;;14.00;99.90;;;;;;5058563;28;20014;-77
2023/06/09 01:30:40;;;;;;;0.28;0.28;;;14.00;99.90;;;;;;5057614;28;20451;-78
2023/06/09 01:33:17;;;;;;;0.20;0.20;;;14.10;99.90;;;;;;5056313;28;20024;-78
2023/06/09 01:35:43;;;;;;;0.35;0.30;;;14.10;99.90;;;;;;5055025;28;20128;-78
2023/06/09 01:38:10;;;;;;;0.40;0.40;;;14.10;99.90;;;;;;5053728;28;20446;-77
2023/06/09 01:40:36;;;;;;;0.20;0.20;;;14.10;99.90;;;;;;5036000;28;20028;-77
2023/06/09 01:43:03;;;;;;;0.32;0.32;;;14.10;99.90;;;;;;5021452;28;20052;-77
2023/06/09 01:45:29;;;;;;;0.20;0.20;;;14.10;99.90;;;;;;5040617;28;20449;-77
2023/06/09 01:47:55;;;;;;;0.30;0.30;;;14.20;99.90;;;;;;5039919;28;20096;-77
2023/06/09 01:50:42;;;;;;;0.50;0.50;;;14.20;99.90;;;;;;5022957;28;20474;-77
2023/06/09 01:53:12;;;;;;;0.57;0.57;;;14.10;99.90;;;;;;5047572;28;20025;-78
2023/06/09 01:56:02;;;;;;;0.77;0.77;;;14.10;99.90;;;;;;5042564;28;20431;-77
2023/06/09 01:58:37;;;;;;;1.10;1.10;;;14.10;99.90;;;;;;5018045;28;20470;-77
2023/06/09 02:01:03;;;;;;;0.75;0.75;;;14.10;99.90;;;;;;5033738;28;20478;-77
2023/06/09 02:03:31;;;;;;;0.80;0.80;;;14.10;99.90;;;;;;5016683;28;20029;-77
2023/06/09 02:05:58;;;;;;;1.20;1.20;;;14.10;99.90;;;;;;5033635;28;20112;-77
2023/06/09 02:08:25;;;;;;;1.13;1.13;;;14.10;99.90;;;;;;5059554;22;20049;-80
2023/06/09 02:10:51;;;;;;;1.17;1.15;;;14.10;99.90;;;;;;5077264;28;20507;-80
2023/06/09 02:13:19;;;;;;;1.10;1.10;;;14.00;99.90;;;;;;5072996;28;20033;-79
2023/06/09 02:15:46;;;;;;;1.10;1.10;;;14.00;99.90;;;;;;5073451;28;20040;-79
2023/06/09 02:18:13;;;;;;;0.93;0.93;;;14.00;99.90;;;;;;5062304;28;20450;-79
2023/06/09 02:20:40;;;;;;;1.00;1.00;;;14.00;99.90;;;;;;5036298;28;20037;-80
2023/06/09 02:23:08;;;;;;;1.15;1.15;;;14.00;99.90;;;;;;5054513;28;20641;-80
2023/06/09 02:25:34;;;;;;;1.00;1.00;;;14.00;99.90;;;;;;5039084;28;20414;-81
2023/06/09 02:28:04;;;;;;;1.27;1.20;;;14.00;99.90;;;;;;5039784;28;20036;-81
2023/06/09 02:30:30;;;;;;;1.00;1.00;;;14.00;99.90;;;;;;5039665;28;20454;-80
2023/06/09 02:32:58;;;;;;;0.80;0.80;;;14.00;99.90;;;;;;5059217;28;20065;-81
2023/06/09 02:35:24;;;;;;;0.82;0.82;;;14.10;99.90;;;;;;5040142;28;20078;-80
2023/06/09 02:37:52;;;;;;;1.10;1.10;;;14.00;99.90;;;;;;5063038;28;20025;-80
2023/06/09 02:40:19;;;;;;;1.25;1.17;;;14.10;99.90;;;;;;5074206;28;20028;-81
2023/06/09 02:42:45;;;;;;;1.25;1.23;;;14.00;99.90;;;;;;5075175;28;20031;-78
2023/06/09 02:45:12;;;;;;;1.50;1.50;;;14.00;99.90;;;;;;5078129;28;20021;-79
2023/06/09 02:47:38;;;;;;;1.40;1.40;;;14.00;99.90;;;;;;5078315;28;20021;-78
2023/06/09 02:50:04;;;;;;;1.35;1.35;;;14.00;99.90;;;;;;5050787;28;20037;-79
2023/06/09 02:52:31;;;;;;;2.15;2.05;;;14.00;99.90;;;;;;5062977;28;20009;-78
2023/06/09 02:54:57;;;;;;;1.83;1.73;;;13.90;99.90;;;;;;5060103;28;20021;-78
2023/06/09 02:57:24;;;;;;;2.05;1.95;;;13.90;99.90;;;;;;5068529;28;20124;-80
2023/06/09 02:59:49;;;;;;;2.00;1.90;;;13.90;99.90;;;;;;5066656;28;20021;-80
2023/06/09 03:02:15;;;;;;;1.60;1.50;;;13.90;99.90;;;;;;5031088;28;20049;-80
2023/06/09 03:04:42;;;;;;;1.60;1.50;;;13.90;99.90;;;;;;5036741;28;20400;-79
2023/06/09 03:07:09;;;;;;;1.42;1.33;;;13.80;99.90;;;;;;5062001;28;20027;-80
2023/06/09 03:09:35;;;;;;;1.77;1.67;;;13.80;99.90;;;;;;5063804;28;20021;-80
2023/06/09 03:12:02;;;;;;;1.30;1.30;;;13.80;99.90;;;;;;5064482;28;20410;-79
2023/06/09 03:14:27;;;;;;;1.20;1.20;;;13.70;99.90;;;;;;5062839;28;20031;-80
2023/06/09 03:16:53;;;;;;;1.63;1.52;;;13.70;99.90;;;;;;5063639;28;20033;-80
2023/06/09 03:19:20;;;;;;;1.67;1.58;;;13.70;99.90;;;;;;5049761;28;20037;-81
2023/06/09 03:21:46;;;;;;;1.60;1.50;;;13.60;99.90;;;;;;5044987;28;20432;-77
2023/06/09 03:24:12;;;;;;;1.30;1.30;;;13.60;99.90;;;;;;5054826;28;20025;-78
2023/06/09 03:26:37;;;;;;;1.20;1.20;;;13.60;99.90;;;;;;5055739;28;20645;-76
2023/06/09 03:29:03;;;;;;;1.50;1.40;;;13.60;99.90;;;;;;5056088;28;20048;-77
2023/06/09 03:31:29;;;;;;;1.23;1.23;;;13.50;99.90;;;;;;5037897;28;20033;-77
2023/06/09 03:33:56;;;;;;;1.08;1.08;;;13.60;99.90;;;;;;5036912;28;20037;-78
2023/06/09 03:36:23;;;;;;;0.98;0.98;;;13.60;99.90;;;;;;5054934;28;20024;-77
2023/06/09 03:38:49;;;;;;;1.10;1.10;;;13.60;99.90;;;;;;5055329;28;20029;-77
2023/06/09 03:41:15;;;;;;;1.00;1.00;;;13.60;99.90;;;;;;5037196;28;20029;-77
2023/06/09 03:43:41;;;;;;;0.95;0.95;;;13.60;99.90;;;;;;5055621;28;20035;-77
2023/06/09 03:46:06;;;;;;;1.00;1.00;;;13.60;99.90;;;;;;5055716;28;20028;-78
2023/06/09 03:48:32;;;;;;;1.40;1.30;;;13.60;99.90;;;;;;5038293;28;20028;-78
2023/06/09 03:50:58;;;;;;;1.40;1.30;;;13.60;99.90;;;;;;5054956;28;20504;-76
2023/06/09 03:53:24;;;;;;;1.65;1.55;;;13.60;99.90;;;;;;5038147;28;20060;-77
2023/06/09 03:55:49;;;;;;;1.10;1.10;;;13.60;99.90;;;;;;5056496;28;20028;-78
2023/06/09 03:58:15;;;;;;;1.17;1.15;;;13.60;99.90;;;;;;5051198;28;20036;-77
2023/06/09 04:00:42;;;;;;;1.13;1.13;;;13.60;99.90;;;;;;5036495;28;20469;-77
2023/06/09 04:03:08;;;;;;;1.25;1.20;;;13.60;99.90;;;;;;5043449;28;20033;-77
2023/06/09 04:05:33;;;;;;;1.45;1.35;;;13.60;99.90;;;;;;5054337;28;20492;-76
2023/06/09 04:07:59;;;;;;;1.50;1.40;;;13.60;99.90;;;;;;5036785;28;20033;-77
2023/06/09 04:10:25;;;;;;;0.93;0.93;;;13.60;99.90;;;;;;5055317;28;20102;-78
2023/06/09 04:12:50;;;;;;;1.48;1.38;;;13.70;99.90;;;;;;5038528;28;20021;-77
2023/06/09 04:15:17;;;;;;;1.00;1.00;;;13.70;99.90;;;;;;5030304;28;20024;-78
2023/06/09 04:17:43;;;;;;;0.93;0.93;;;13.80;99.90;;;;;;5036332;28;20040;-77
2023/06/09 04:20:10;;;;;;;1.00;1.00;;;13.80;99.90;;;;;;5036421;28;20025;-78
2023/06/09 04:22:35;;;;;;;0.90;0.90;;;13.80;99.90;;;;;;5048437;28;20060;-77
2023/06/09 04:25:01;;;;;;;1.00;1.00;;;13.80;99.90;;;;;;5055992;28;20021;-78
2023/06/09 04:27:27;;;;;;;1.17;1.17;;;13.80;99.90;;;;;;5056585;28;20025;-77
2023/06/09 04:29:54;;;;;;;1.02;1.00;;;13.90;99.90;;;;;;5057036;28;20099;-78
2023/06/09 04:32:20;;;;;;;1.42;1.33;;;13.90;99.90;;;;;;5056225;28;20423;-78
2023/06/09 04:34:46;;;;;;;1.20;1.20;;;14.00;99.90;;;;;;5057039;28;20102;-78
2023/06/09 04:37:12;;;;;;;1.45;1.42;;;14.00;99.90;;;;;;5056443;28;20031;-77
2023/06/09 04:39:41;;;;;;;1.10;1.10;;;14.10;99.90;;;;;;5046946;28;20040;-77
2023/06/09 04:42:08;;;;;;;1.10;1.10;;;14.20;99.90;;;;;;5059014;28;20553;-78
2023/06/09 04:44:34;;;;;;;0.90;0.90;;;14.20;99.90;;;;;;5039696;28;20021;-77
2023/06/09 04:47:02;;;;;;;0.88;0.88;;;14.30;99.90;;;;;;5041990;28;20044;-77
2023/06/09 04:49:30;;;;;;;0.85;0.85;;;14.30;99.90;;;;;;5063141;28;20024;-77
2023/06/09 04:51:57;;;;;;;1.00;1.00;;;14.40;99.90;;;;;;5063812;28;21464;-76
2023/06/09 04:54:25;;;;;;;1.10;1.10;;;14.50;99.90;;;;;;5066939;28;20032;-76
2023/06/09 04:56:57;;;;;;;1.15;1.15;;;14.50;99.90;;;;;;5072624;28;20005;-76
2023/06/09 04:59:28;;;;;;;1.20;1.20;;;14.60;99.90;;;;;;5073172;28;20084;-75
2023/06/09 05:01:55;;;;;;;1.83;1.73;;;14.70;99.90;;;;;;5077055;28;20040;-77
2023/06/09 05:04:21;;;;;;;1.70;1.60;;;14.80;99.90;;;;;;5073240;28;20364;-75
2023/06/09 05:06:47;;;;;;;1.65;1.55;;;15.00;99.90;;;;;;5073352;28;20048;-77
2023/06/09 05:09:12;;;;;;;1.80;1.70;;;15.90;99.90;;;;;;5054487;28;20033;-77
2023/06/09 05:11:38;;;;;;;2.17;2.03;;;;;;;;;;5071275;28;20055;-78
2023/06/09 05:14:05;;;;;;;2.40;2.20;;;;;;;;;;5054532;28;20032;-78
2023/06/09 05:16:31;;;;;;;1.50;1.33;;;19.90;99.90;;;;;;5065845;28;20021;-78
2023/06/09 05:18:57;;;;;;;1.73;1.63;;;20.40;99.90;;;;;;5066694;28;20024;-78
2023/06/09 05:21:24;;;;;;;1.30;1.30;;;20.90;99.90;;;;;;5068929;28;20029;-78
2023/06/09 05:23:50;;;;;;;1.20;1.20;;;21.50;99.90;;;;;;5066863;28;20049;-78
2023/06/09 05:26:17;;;;;;;1.35;1.25;;;22.00;99.90;;;;;;5073723;28;20020;-77
2023/06/09 05:28:43;;;;;;;1.38;1.38;;;22.50;99.90;;;;;;5075576;28;20025;-77
2023/06/09 05:31:09;;;;;;;1.20;1.20;;;22.70;98.40;;;;;;5075521;28;20102;-77
2023/06/09 05:33:36;;;;;;;1.55;1.45;;;22.90;98.20;;;;;;5050286;28;20029;-77
2023/06/09 05:36:02;;;;;;;1.27;1.27;;;23.10;97.30;;;;;;5074812;28;20017;-77
2023/06/09 05:38:28;;;;;;;1.50;1.40;;;23.20;96.20;;;;;;5065802;28;20024;-80
2023/06/09 05:40:53;;;;;;;2.08;1.92;;;23.40;95.50;;;;;;5063937;28;20048;-78
2023/06/09 05:43:19;;;;;;;1.65;1.55;;;23.60;94.80;;;;;;5055312;28;20108;-79
2023/06/09 05:45:45;;;;;;;2.08;1.85;;;23.70;94.80;;;;;;5062909;28;20108;-81
2023/06/09 05:48:10;;;;;;;1.73;1.63;;;23.80;94.10;;;;;;5056158;28;20029;-81
2023/06/09 05:50:37;;;;;;;1.27;1.27;;;23.10;95.50;;;;;;5035113;28;20085;-81
2023/06/09 05:53:04;;;;;;;1.50;1.40;;;22.70;98.50;;;;;;5063515;28;20056;-80
2023/06/09 05:55:29;;;;;;;1.20;1.20;;;23.60;99.10;;;;;;5056470;28;20064;-79
2023/06/09 05:57:56;;;;;;;1.17;1.17;;;24.70;97.10;;;;;;5058568;28;20029;-81
2023/06/09 06:00:29;;;;;;;1.00;1.00;;;25.60;95.10;;;;;;5062192;28;20055;-80
2023/06/09 06:02:59;;;;;;;1.05;1.05;;;26.20;93.30;;;;;;5073804;28;20025;-82
2023/06/09 06:05:24;;;;;;;1.67;1.58;;;26.60;92.40;;;;;;5059462;28;20508;-80
2023/06/09 06:07:50;;;;;;;1.73;1.63;;;26.60;87.30;;;;;;5046758;28;20033;-80
2023/06/09 06:10:16;;;;;;;2.10;2.00;;;26.00;88.40;;;;;;5062192;28;20043;-80
2023/06/09 06:12:42;;;;;;;2.28;1.70;;;25.60;88.30;;;;;;5055723;28;20058;-81
2023/06/09 06:15:08;;;;;;;1.40;1.30;;;25.70;91.90;;;;;;5064191;28;20052;-81
2023/06/09 06:17:34;;;;;;;1.58;1.58;;;26.40;92.80;;;;;;5064264;28;20052;-80
2023/06/09 06:20:00;;;;;;;1.55;1.55;;;26.90;91.10;;;;;;5063753;28;20029;-81
2023/06/09 06:22:26;;;;;;;1.20;1.20;;;27.20;91.20;;;;;;5057041;28;20079;-83
2023/06/09 06:24:51;;;;;;;1.15;1.15;;;27.50;90.30;;;;;;5060893;28;20057;-83
2023/06/09 06:27:17;;;;;;;1.00;1.00;;;27.70;90.00;;;;;;5058168;28;20032;-81
2023/06/09 06:29:43;;;;;;;0.88;0.88;;;27.90;90.40;;;;;;5060513;28;20053;-81
2023/06/09 06:32:10;;;;;;;1.60;1.60;;;28.00;90.10;;;;;;5066584;28;20037;-80
2023/06/09 06:34:35;;;;;;;1.58;1.48;;;27.80;84.10;;;;;;5064977;28;20032;-80
2023/06/09 06:37:01;;;;;;;1.67;1.58;;;27.40;88.20;;;;;;5064326;28;20021;-80
2023/06/09 06:39:27;;;;;;;1.67;1.58;;;27.80;88.40;;;;;;5063405;28;20068;-82
2023/06/09 06:41:53;;;;;;;1.40;1.40;;;28.00;87.40;;;;;;5062871;28;20040;-80
2023/06/09 06:44:19;;;;;;;1.33;1.33;;;28.20;84.80;;;;;;5062525;28;20497;-79
2023/06/09 06:46:45;;;;;;;1.20;1.20;;;28.10;86.50;;;;;;5050872;28;20017;-81
2023/06/09 06:49:11;;;;;;;1.10;1.10;;;28.10;85.10;;;;;;5058999;28;20021;-81
2023/06/09 06:51:37;;;;;;;1.08;1.08;;;28.30;85.50;;;;;;5047770;28;20060;-81
2023/06/09 06:54:04;;;;;;;1.20;1.20;;;28.40;87.40;;;;;;5060531;28;20021;-83
2023/06/09 06:56:29;;;;;;;1.13;1.13;;;28.40;83.00;;;;;;5024992;28;20044;-82
2023/06/09 06:58:55;;;;;;;1.40;1.40;;;28.40;84.90;;;;;;5050509;28;20017;-82
2023/06/09 07:01:21;;;;;;;1.90;1.80;;;28.30;79.10;;;;;;5045420;28;20025;-82
2023/06/09 07:03:49;;;;;;;1.85;1.75;;;27.40;74.60;;;;;;5068945;28;20025;-82
2023/06/09 07:06:16;;;;;;;1.80;1.70;;;26.70;77.60;;;;;;5062008;28;20052;-84
2023/06/09 07:08:42;;;;;;;1.48;1.48;;;26.70;85.30;;;;;;5046437;28;20092;-81
2023/06/09 07:11:08;;;;;;;2.08;1.88;;;27.20;87.40;;;;;;5041060;28;20025;-82
2023/06/09 07:13:34;;;;;;;1.70;1.60;;;27.40;81.00;;;;;;5068660;28;20544;-81
2023/06/09 07:16:00;;;;;;;2.20;2.10;;;27.50;79.40;;;;;;5076976;28;20036;-82
2023/06/09 07:18:26;;;;;;;1.75;1.65;;;27.00;77.00;;;;;;5079002;28;20032;-80
2023/06/09 07:20:52;;;;;;;2.08;1.98;;;25.20;78.10;;;;;;5050475;28;20087;-80
2023/06/09 07:23:18;;;;;;;2.08;1.98;;;23.30;82.00;;;;;;5040236;28;20024;-80
2023/06/09 07:25:44;;;;;;;2.15;2.05;;;21.80;87.90;;;;;;5061255;28;20079;-80
2023/06/09 07:28:09;;;;;;;3.28;2.97;;;20.80;88.70;;;;;;5061534;28;20017;-80
2023/06/09 07:30:35;;;;;;;2.60;2.40;;;20.10;91.70;;;;;;5063627;28;20135;-79
2023/06/09 07:33:01;;;;;;;4.65;2.75;;;19.70;93.50;;;;;;5060045;28;20013;-79
2023/06/09 07:35:28;;;;;;;2.65;2.45;;;19.40;94.70;;;;;;5060876;28;20488;-81
2023/06/09 07:37:54;;;;;;;2.45;2.25;;;19.20;99.40;;;;;;5062823;28;20021;-80
2023/06/09 07:40:22;;;;;;;4.22;3.83;;;19.20;97.80;;;;;;5061961;28;20025;-80
2023/06/09 07:43:00;;;;;;;3.28;3.05;;;19.20;98.10;;;;;;5058513;28;20041;-81
2023/06/09 07:45:27;;;;;;;2.72;2.53;;;19.20;99.90;;;;;;5056536;28;20029;-80
2023/06/09 07:47:52;;;;;;;3.38;3.13;;;19.20;99.90;;;;;;5042999;28;20021;-80
2023/06/09 07:50:18;;;;;;;2.22;2.13;;;19.30;99.90;;;;;;5060402;28;20040;-80
2023/06/09 07:52:44;;;;;;;2.80;2.60;;;19.50;99.90;;;;;;5061611;28;20027;-81
2023/06/09 07:55:10;;;;;;;2.75;2.55;;;19.60;99.90;;;;;;5054369;28;20669;-78
2023/06/09 07:57:37;;;;;;;2.70;2.50;;;19.70;99.90;;;;;;5054473;28;20112;-80
2023/06/09 08:00:04;;;;;;;2.65;2.45;;;19.80;99.50;;;;;;5064828;28;20032;-80
2023/06/09 08:02:31;;;;;;;2.25;2.15;;;19.90;99.20;;;;;;5064411;28;20039;-80
2023/06/09 08:04:57;;;;;;;2.70;2.50;;;20.00;98.40;;;;;;5050785;28;20090;-81
2023/06/09 08:07:22;;;;;;;2.70;2.50;;;20.20;97.80;;;;;;5056413;28;20017;-80
2023/06/09 08:09:48;;;;;;;2.75;2.55;;;20.30;97.20;;;;;;5060400;28;20130;-79
2023/06/09 08:12:15;;;;;;;2.90;2.70;;;20.30;94.70;;;;;;5064394;28;20090;-79
2023/06/09 08:14:41;;;;;;;2.40;2.30;;;20.40;94.50;;;;;;5041527;28;20029;-79
2023/06/09 08:17:06;;;;;;;2.55;2.40;;;20.40;93.80;;;;;;5062681;28;20508;-79
2023/06/09 08:19:32;;;;;;;2.28;2.17;;;20.50;93.50;;;;;;5067078;28;20031;-79
2023/06/09 08:21:58;;;;;;;2.50;2.30;;;20.60;92.60;;;;;;5071198;28;20093;-79
2023/06/09 08:24:23;;;;;;;3.80;3.15;;;20.70;91.90;;;;;;5070132;28;20059;-79
2023/06/09 08:26:49;;;;;;;2.25;2.15;;;20.90;90.40;;;;;;5043028;28;20025;-79
2023/06/09 08:29:16;;;;;;;2.38;2.20;;;20.90;89.10;;;;;;5053311;28;20029;-77
2023/06/09 08:31:42;;;;;;;2.05;1.85;;;21.00;88.30;;;;;;5034278;28;20029;-80
2023/06/09 08:34:08;;;;;;;2.38;2.15;;;21.10;86.10;;;;;;5065294;28;20032;-78
2023/06/09 08:36:34;;;;;;;1.88;1.77;;;21.20;85.30;;;;;;5066713;28;20028;-81
2023/06/09 08:38:59;;;;;;;2.10;2.00;;;21.30;85.60;;;;;;5063981;28;20028;-78
2023/06/09 08:41:32;;;;;;;1.73;1.63;;;21.50;83.60;;;;;;5057428;28;20024;-79
2023/06/09 08:43:58;;;;;;;2.10;2.00;;;21.80;82.20;;;;;;5052193;28;20022;-80
2023/06/09 08:46:28;;;;;;;1.90;1.80;;;21.90;80.80;;;;;;5073786;28;20048;-79
2023/06/09 08:48:57;;;;;;;1.90;1.80;;;22.00;79.60;;;;;;5063600;28;20017;-79
2023/06/09 08:51:23;;;;;;;2.03;1.92;;;21.90;79.70;;;;;;5049111;28;20025;-80
2023/06/09 08:53:52;;;;;;;1.83;1.73;;;21.80;80.10;;;;;;5058119;28;20443;-79
2023/06/09 08:56:21;;;;;;;2.03;1.92;;;21.90;80.10;;;;;;5059873;28;20028;-80
2023/06/09 08:58:49;;;;;;;2.20;2.10;;;22.00;79.60;;;;;;5033681;28;20022;-80
2023/06/09 09:01:17;;;;;;;2.08;1.98;;;22.30;79.20;;;;;;5041264;28;20088;-80
2023/06/09 09:03:43;;;;;;;3.00;2.80;;;22.30;78.50;;;;;;5041444;28;20041;-80
2023/06/09 09:06:10;;;;;;;3.53;3.22;;;22.50;78.30;;;;;;5047320;28;20027;-80
2023/06/09 09:08:36;;;;;;;4.10;3.72;;;22.50;76.60;;;;;;5046389;28;20044;-79
2023/06/09 09:11:01;;;;;;;3.25;2.95;;;22.60;76.50;;;;;;5040640;28;20022;-82
2023/06/09 09:13:31;;;;;;;2.95;2.75;;;22.60;76.70;;;;;;5027069;28;20067;-80
2023/06/09 09:15:59;;;;;;;3.15;2.95;;;22.70;76.60;;;;;;5038686;28;20029;-79
2023/06/09 09:18:34;;;;;;;2.97;2.78;;;23.00;75.90;;;;;;5057876;28;20032;-79
2023/06/09 09:21:01;;;;;;;2.80;2.60;;;23.10;75.70;;;;;;5048975;28;20029;-79
2023/06/09 09:23:31;;;;;;;3.47;3.17;;;23.20;74.90;;;;;;5047283;28;20028;-81
2023/06/09 09:26:03;;;;;;;3.55;3.22;;;23.10;74.50;;;;;;5042949;28;20032;-80
2023/06/09 09:28:42;;;;;;;3.05;2.80;;;22.90;74.30;;;;;;5058676;28;20029;-80
2023/06/09 09:31:08;;;;;;;2.60;2.40;;;23.00;74.30;;;;;;5048124;28;20055;-80
2023/06/09 09:33:38;;;;;;;2.78;2.58;;;23.20;73.10;;;;;;5047265;28;20040;-80
2023/06/09 09:36:09;;;;;;;2.30;2.20;;;23.40;71.70;;;;;;5022468;28;20079;-81
2023/06/09 09:38:35;;;;;;;3.50;3.20;;;23.70;71.40;;;;;;5030371;28;20421;-80
2023/06/09 09:41:04;;;;;;;2.90;2.70;;;23.80;70.20;;;;;;5059918;28;20031;-80
2023/06/09 09:43:30;;;;;;;2.63;2.42;;;23.90;70.00;;;;;;5060568;28;20031;-79
2023/06/09 09:46:00;;;;;;;3.10;2.80;;;24.00;66.70;;;;;;5053476;28;20025;-81
2023/06/09 09:48:26;;;;;;;2.50;2.30;;;24.00;66.50;;;;;;5028771;28;20026;-79
2023/06/09 09:50:54;;;;;;;3.08;2.85;;;24.10;66.70;;;;;;5041346;28;20033;-81
2023/06/09 09:53:25;;;;;;;2.80;2.60;;;24.20;67.20;;;;;;5055791;28;20029;-80
2023/06/09 09:55:54;;;;;;;2.80;2.60;;;24.30;67.60;;;;;;5058461;28;20025;-81
2023/06/09 09:58:26;;;;;;;2.30;2.20;;;24.50;66.60;;;;;;5061138;28;20275;-80
2023/06/09 10:00:57;;;;;;;2.63;2.42;;;24.80;65.80;;;;;;5060359;28;20036;-81
2023/06/09 10:03:23;;;;;;;2.70;2.50;;;24.90;64.50;;;;;;5043031;28;20029;-81
2023/06/09 10:05:50;;;;;;;2.58;2.38;;;25.10;63.90;;;;;;5042070;28;20032;-81
2023/06/09 10:08:28;;;;;;;2.67;2.47;;;25.40;62.20;;;;;;5059064;28;20083;-81
2023/06/09 10:11:00;;;;;;;2.67;2.47;;;25.40;60.40;;;;;;5041997;28;20029;-80
2023/06/09 10:13:27;;;;;;;2.75;2.55;;;25.40;60.50;;;;;;5027731;28;20025;-80
2023/06/09 10:15:57;;;;;;;2.45;2.25;;;25.60;60.90;;;;;;5040791;28;20040;-81
2023/06/09 10:18:23;;;;;;;2.42;2.22;;;25.70;59.10;;;;;;5060054;28;20024;-80
2023/06/09 10:20:50;;;;;;;2.88;2.38;;;25.60;59.50;;;;;;5061731;28;20155;-80
2023/06/09 10:23:17;;;;;;;2.40;2.22;;;25.40;59.60;;;;;;5072908;28;20023;-80
2023/06/09 10:25:45;;;;;;;2.67;2.47;;;25.40;60.50;;;;;;5051215;28;20025;-78
2023/06/09 10:28:12;;;;;;;2.47;2.28;;;25.20;60.20;;;;;;5052163;28;20032;-79
2023/06/09 10:30:38;;;;;;;2.55;2.40;;;25.10;60.20;;;;;;5054787;28;20017;-80
2023/06/09 10:33:15;;;;;;;3.08;2.80;;;25.30;60.10;;;;;;5040799;28;20099;-79
2023/06/09 10:35:44;;;;;;;3.10;2.80;;;25.40;59.20;;;;;;5063037;28;20029;-78
2023/06/09 10:38:29;;;;;;;3.60;3.00;;;25.50;59.20;;;;;;5052433;28;20029;-79
2023/06/09 10:41:20;;;;;;;2.47;2.38;;;25.50;59.70;;;;;;5061514;28;20119;-78
2023/06/09 10:44:04;;;;;;;2.53;2.35;;;25.70;59.50;;;;;;5030863;28;20041;-78
2023/06/09 10:46:42;;;;;;;2.72;2.53;;;26.00;58.20;;;;;;5058006;28;20021;-79
2023/06/09 10:49:21;;;;;;;3.15;2.85;;;26.30;56.80;;;;;;5063146;28;20028;-79
2023/06/09 10:51:47;;;;;;;2.40;2.30;;;26.40;55.60;;;;;;5057591;28;20023;-79
2023/06/09 10:54:14;;;;;;;2.97;2.78;;;26.30;56.10;;;;;;5057168;28;20120;-78
2023/06/09 10:56:41;;;;;;;3.22;3.03;;;26.30;56.60;;;;;;5055831;28;20451;-79
2023/06/09 10:59:30;;;;;;;4.22;3.38;;;26.40;56.80;;;;;;5057804;28;20028;-78
2023/06/09 11:02:05;;;;;;;4.35;3.88;;;;;;;;;;5049926;28;20486;-79
2023/06/09 11:04:48;;;;;;;4.53;3.05;;;26.20;57.40;;;;;;5034762;28;20043;-79
2023/06/09 11:07:17;;;;;;;2.90;2.70;;;26.20;58.30;;;;;;5051342;28;20373;-78
2023/06/09 11:09:51;;;;;;;2.42;2.33;;;26.30;57.80;;;;;;5055065;28;20579;-79
2023/06/09 11:12:38;;;;;;;3.45;3.15;;;26.70;57.50;;;;;;5042985;28;20021;-79
2023/06/09 11:15:10;;;;;;;4.18;3.78;;;26.90;55.60;;;;;;5033649;28;20098;-79
2023/06/09 11:17:37;;;;;;;3.50;3.20;;;26.30;55.80;;;;;;5050421;28;20017;-79
2023/06/09 11:20:06;;;;;;;3.13;2.83;;;;;;;;;;5054725;28;20029;-78
2023/06/09 11:22:54;;;;;;;3.08;2.88;;;25.80;57.80;;;;;;5056229;28;20022;-79
2023/06/09 11:25:20;;;;;;;3.47;3.17;;;26.20;57.00;;;;;;5046072;28;20099;-78
2023/06/09 11:28:09;;;;;;;3.25;3.03;;;26.20;56.10;;;;;;5046759;28;20025;-78
2023/06/09 11:30:59;;;;;;;3.05;2.85;;;26.20;56.20;;;;;;5047675;28;20033;-78
2023/06/09 11:33:44;;;;;;;2.50;2.33;;;25.60;56.20;;;;;;5045510;28;20029;-78
2023/06/09 11:36:15;;;;;;;2.80;2.60;;;25.00;56.90;;;;;;5061203;28;20107;-77
2023/06/09 11:38:42;;;;;;;2.88;2.67;;;24.60;57.80;;;;;;5067597;28;20025;-78
2023/06/09 11:41:11;;;;;;;2.50;2.22;;;24.80;58.40;;;;;;5072790;28;20025;-79
2023/06/09 11:43:36;;;;;;;3.40;3.10;;;25.20;56.90;;;;;;5054554;28;20028;-78
2023/06/09 11:46:03;;;;;;;3.90;2.60;;;25.60;55.80;;;;;;5075564;28;20025;-77
2023/06/09 11:48:30;;;;;;;2.58;2.38;;;25.70;54.90;;;;;;5056206;28;20053;-76
2023/06/09 11:50:56;;;;;;;2.95;2.72;;;26.00;55.50;;;;;;5049698;28;20043;-78
2023/06/09 11:53:24;;;;;;;2.97;2.67;;;26.40;54.70;;;;;;5055777;28;20049;-79
2023/06/09 11:56:03;;;;;;;2.78;2.58;;;26.50;53.60;;;;;;5039215;28;20040;-78
2023/06/09 11:58:29;;;;;;;2.50;2.30;;;26.60;53.30;;;;;;5056198;28;20056;-77
2023/06/09 12:00:55;;;;;;;2.72;2.53;;;26.80;53.20;;;;;;5055061;28;20065;-78
2023/06/09 12:03:23;;;;;;;3.70;3.03;;;;;;;;;;5052759;28;20094;-78
2023/06/09 12:05:50;;;;;;;2.80;2.60;;;26.80;51.50;;;;;;5051732;28;20033;-78
2023/06/09 12:08:16;;;;;;;3.00;2.80;;;26.60;52.40;;;;;;5042294;28;20067;-78
2023/06/09 12:10:42;;;;;;;3.40;3.10;;;26.50;52.50;;;;;;5031341;28;20066;-77
2023/06/09 12:13:07;;;;;;;3.00;2.70;;;26.50;52.20;;;;;;5037131;28;20474;-77
2023/06/09 12:15:33;;;;;;;8.23;3.28;;;26.40;51.90;;;;;;5049285;28;20023;-78
2023/06/09 12:18:03;;;;;;;2.97;2.78;;;26.10;51.50;;;;;;5064008;28;20044;-78
2023/06/09 12:20:36;;;;;;;2.70;2.50;;;25.90;51.90;;;;;;5058386;28;20120;-78
2023/06/09 12:23:03;;;;;;;3.35;3.05;;;26.10;52.30;;;;;;5058854;28;20071;-79
2023/06/09 12:25:30;;;;;;;2.60;2.40;;;26.30;52.00;;;;;;5021070;28;20033;-79
2023/06/09 12:28:16;;;;;;;3.67;2.85;;;26.60;51.40;;;;;;5042155;28;20401;-79
2023/06/09 12:30:47;;;;;;;4.18;3.08;;;26.80;50.90;;;;;;5052742;28;20021;-79
2023/06/09 12:33:16;;;;;;;3.00;2.80;;;26.40;49.90;;;;;;5054700;28;20059;-78
2023/06/09 12:35:49;;;;;;;3.33;2.97;;;26.00;50.60;;;;;;5040867;28;20033;-78
2023/06/09 12:38:17;;;;;;;2.88;2.67;;;26.00;51.40;;;;;;5036651;28;20029;-79
2023/06/09 12:40:47;;;;;;;3.45;3.13;;;26.20;50.80;;;;;;5054910;28;20036;-80
2023/06/09 12:43:15;;;;;;;2.92;2.72;;;26.30;49.20;;;;;;5057113;28;20013;-79
2023/06/09 12:45:42;;;;;;;4.50;3.40;;;26.40;48.30;;;;;;5041289;28;20081;-78
2023/06/09 12:48:09;;;;;;;2.78;2.58;;;26.40;48.20;;;;;;5059998;28;20025;-78
2023/06/09 12:50:35;;;;;;;2.85;2.58;;;26.50;48.70;;;;;;5053046;28;20021;-79
2023/06/09 12:53:01;;;;;;;2.80;2.60;;;26.60;48.00;;;;;;5058068;28;20103;-79
2023/06/09 12:55:26;;;;;;;2.58;2.38;;;26.50;47.50;;;;;;5060606;28;20071;-82